CDT,Max TemperatureF,Mean TemperatureF,Min TemperatureF,Max Dew PointF,MeanDew PointF,Min DewpointF,Max Humidity, Mean Humidity, Min Humidity, Max Sea Level PressureIn, Mean Sea Level PressureIn, Min Sea Level PressureIn, Max VisibilityMiles, Mean VisibilityMiles, Min VisibilityMiles, Max Wind SpeedMPH, Mean Wind SpeedMPH, Max Gust SpeedMPH,PrecipitationIn, CloudCover, Events, WindDirDegrees
2012-9-1,77,72,67,70,67,58,93,79,64,29.95,29.92,29.88,10,10,8,23,13,30,0.04,5,Rain,26
2012-9-2,87,74,60,71,63,55,87,72,57,29.99,29.93,29.88,10,10,9,10,3,13,0.00,2,,23
2012-9-3,89,78,66,71,68,64,97,75,53,29.95,29.91,29.84,10,8,2,15,4,22,0.02,0,,161
2012-9-4,90,80,69,72,70,67,93,75,56,29.89,29.84,29.75,10,10,5,13,5,15,0.00,0,,185
2012-9-5,88,76,63,70,62,51,87,64,40,29.91,29.83,29.75,10,10,10,17,8,23,0.00,0,,4
2012-9-6,84,70,55,58,54,50,83,60,37,30.01,29.92,29.81,10,10,10,13,7,17,0.00,0,,93
2012-9-7,73,64,55,65,58,45,93,78,62,30.05,29.89,29.74,10,10,10,23,11,28,0.05,2,Rain,2
2012-9-8,76,61,46,48,45,42,86,60,33,30.13,30.05,29.95,10,10,10,21,10,30,0.00,0,,295
2012-9-9,75,63,50,50,46,41,77,58,38,30.20,30.14,30.03,10,10,10,13,6,17,0.00,0,,12
2012-9-10,78,65,51,52,49,46,83,60,36,30.18,30.10,30.01,10,10,10,17,9,25,0.00,0,,170
2012-9-11,88,72,56,58,53,49,86,56,26,30.03,29.99,29.93,10,10,10,23,11,31,0.00,0,,184
2012-9-12,86,73,60,60,55,39,84,62,40,30.15,30.04,29.98,10,10,10,24,12,30,0.04,0,,161
2012-9-13,60,55,49,54,50,46,93,77,60,30.41,30.32,30.19,10,9,4,31,9,43,0.36,6,Rain,21
2012-9-14,70,59,47,50,46,42,93,65,37,30.41,30.37,30.32,10,10,9,9,4,12,0.04,0,,236
2012-9-15,75,63,51,49,45,42,77,55,33,30.32,30.23,30.13,10,10,10,14,7,20,0.00,0,,168
2012-9-16,70,60,50,61,55,45,93,78,62,30.12,30.05,29.97,10,8,0,14,6,17,0.00,3,Fog,194
2012-9-17,72,59,45,63,55,41,97,80,63,30.00,29.94,29.90,10,8,1,7,8,8,0.34,5,Rain,314
2012-9-18,65,53,41,42,38,33,89,60,31,30.11,30.05,30.00,10,10,10,16,8,22,0.00,0,,303
2012-9-19,80,64,48,56,45,37,71,54,36,30.01,29.90,29.80,10,10,10,25,12,31,0.00,1,Thunderstorm,201
2012-9-20,78,56,43,47,39,32,89,58,26,30.04,30.00,29.96,10,10,0,7,7,7,0.00,0,,285
2012-9-21,76,64,51,47,43,40,66,47,27,29.96,29.85,29.77,10,10,10,25,10,31,0.00,1,,249
2012-9-22,61,51,40,40,35,30,71,54,36,30.29,30.16,29.91,10,10,10,20,10,25,0.00,0,,323
2012-9-23,67,52,36,36,32,29,76,51,26,30.37,30.30,30.24,10,10,10,12,4,15,0.00,0,,15
2012-9-24,73,59,45,50,40,29,65,48,31,30.24,30.04,29.85,10,10,10,15,7,21,0.01,0,Rain,160
2012-9-25,83,69,54,57,53,50,86,63,40,29.88,29.82,29.78,10,10,10,9,4,12,0.00,1,Thunderstorm,40
2012-9-26,75,63,51,48,42,37,66,49,31,30.12,30.02,29.88,10,10,10,16,6,22,0.00,0,,26
2012-9-27,75,58,41,50,41,37,82,55,27,30.22,30.17,30.13,10,10,10,9,2,14,0.00,0,,63
2012-9-28,73,60,46,44,41,38,76,54,31,30.23,30.17,30.13,10,10,10,8,2,12,0.00,0,,102
2012-9-29,79,62,45,49,42,38,76,52,28,30.19,30.11,30.03,10,9,2,9,4,12,0.00,0,,267
2012-9-30,81,67,53,48,43,40,66,46,26,30.02,29.94,29.88,10,10,6,13,6,20,0.00,0,,355